sensor_id;sensor_type;location;lat;lon;timestamp;pressure;altitude;pressure_sealevel;temperature;humidity
48035;BME280;33812;46.480;6.834;2022-12-18T16:10:09;94551.06;;;22.22;36.46
48035;BME280;33812;46.480;6.834;2022-12-18T16:14:18;94552.16;;;22.29;36.69
48035;BME280;33812;46.480;6.834;2022-12-18T16:18:20;94552.22;;;22.25;37.10
48035;BME280;33812;46.480;6.834;2022-12-18T16:22:25;94545.88;;;22.25;36.96
48035;BME280;33812;46.480;6.834;2022-12-18T16:26:29;94560.09;;;22.27;37.01
48035;BME280;33812;46.480;6.834;2022-12-18T16:30:37;94551.50;;;22.21;37.53
48035;BME280;33812;46.480;6.834;2022-12-18T16:34:44;94547.13;;;22.24;37.13
48035;BME280;33812;46.480;6.834;2022-12-18T16:38:52;94549.88;;;22.24;37.09
48035;BME280;33812;46.480;6.834;2022-12-18T16:42:55;94545.97;;;22.21;37.38
48035;BME280;33812;46.480;6.834;2022-12-18T16:46:57;94545.53;;;22.22;37.47
48035;BME280;33812;46.480;6.834;2022-12-18T16:51:03;94548.47;;;22.15;37.75
48035;BME280;33812;46.480;6.834;2022-12-18T16:55:06;94555.19;;;22.14;38.01
48035;BME280;33812;46.480;6.834;2022-12-18T16:59:11;94555.19;;;22.14;37.66
48035;BME280;33812;46.480;6.834;2022-12-18T17:03:13;94553.28;;;22.11;38.05
48035;BME280;33812;46.480;6.834;2022-12-18T17:07:15;94555.69;;;22.09;38.47
48035;BME280;33812;46.480;6.834;2022-12-18T17:11:25;94572.59;;;22.15;38.39
48035;BME280;33812;46.480;6.834;2022-12-18T17:15:35;94578.56;;;22.13;38.36
48035;BME280;33812;46.480;6.834;2022-12-18T17:19:37;94578.56;;;22.13;38.60
48035;BME280;33812;46.480;6.834;2022-12-18T17:23:41;94575.44;;;22.11;38.52
48035;BME280;33812;46.480;6.834;2022-12-18T17:27:44;94576.22;;;22.12;38.30
48035;BME280;33812;46.480;6.834;2022-12-18T17:31:47;94551.72;;;22.10;38.51
48035;BME280;33812;46.480;6.834;2022-12-18T17:35:49;94541.84;;;22.09;38.73
48035;BME280;33812;46.480;6.834;2022-12-18T17:39:52;94537.59;;;22.04;38.07
48035;BME280;33812;46.480;6.834;2022-12-18T17:43:56;94529.22;;;22.08;38.05
48035;BME280;33812;46.480;6.834;2022-12-18T17:47:59;94530.50;;;22.03;37.48
48035;BME280;33812;46.480;6.834;2022-12-18T17:52:01;94550.28;;;22.02;37.13
48035;BME280;33812;46.480;6.834;2022-12-18T17:56:04;94564.13;;;22.02;36.88
48035;BME280;33812;46.480;6.834;2022-12-18T18:00:07;94565.28;;;22.04;37.91
48035;BME280;33812;46.480;6.834;2022-12-18T18:04:14;94556.53;;;22.06;36.93
48035;BME280;33812;46.480;6.834;2022-12-18T18:08:16;94579.41;;;22.10;37.32
48035;BME280;33812;46.480;6.834;2022-12-18T18:12:17;94574.63;;;22.10;38.19
48035;BME280;33812;46.480;6.834;2022-12-18T18:16:39;94576.56;;;22.14;37.72
48035;BME280;33812;46.480;6.834;2022-12-18T18:20:42;94557.28;;;22.10;37.49
48035;BME280;33812;46.480;6.834;2022-12-18T18:24:44;94537.78;;;22.14;37.33
48035;BME280;33812;46.480;6.834;2022-12-18T18:28:46;94546.09;;;22.14;37.23
48035;BME280;33812;46.480;6.834;2022-12-18T18:32:48;94550.81;;;22.17;37.57
48035;BME280;33812;46.480;6.834;2022-12-18T18:36:51;94553.28;;;22.11;37.50
48035;BME280;33812;46.480;6.834;2022-12-18T18:41:01;94550.81;;;22.17;38.30
48035;BME280;33812;46.480;6.834;2022-12-18T18:45:05;94553.91;;;22.19;39.79
48035;BME280;33812;46.480;6.834;2022-12-18T18:49:09;94551.94;;;22.19;39.81
48035;BME280;33812;46.480;6.834;2022-12-18T18:53:14;94550.75;;;22.20;38.72
48035;BME280;33812;46.480;6.834;2022-12-18T18:57:16;94553.16;;;22.18;39.29
48035;BME280;33812;46.480;6.834;2022-12-18T19:01:19;94560.66;;;22.18;39.22
48035;BME280;33812;46.480;6.834;2022-12-18T19:05:21;94573.16;;;22.06;38.19
48035;BME280;33812;46.480;6.834;2022-12-18T19:09:24;94565.56;;;22.10;38.47
48035;BME280;33812;46.480;6.834;2022-12-18T19:13:28;94554.06;;;21.67;33.02
48035;BME280;33812;46.480;6.834;2022-12-18T19:17:30;94582.44;;;21.23;30.91
48035;BME280;33812;46.480;6.834;2022-12-18T19:21:34;94587.22;;;21.19;30.41
48035;BME280;33812;46.480;6.834;2022-12-18T19:25:39;94574.31;;;20.19;26.96
48035;BME280;33812;46.480;6.834;2022-12-18T19:29:41;94569.69;;;20.12;29.02
48035;BME280;33812;46.480;6.834;2022-12-18T19:33:44;94565.94;;;21.16;31.19
48035;BME280;33812;46.480;6.834;2022-12-18T19:37:46;94571.50;;;21.40;31.13
48035;BME280;33812;46.480;6.834;2022-12-18T19:41:53;94572.34;;;21.61;32.94
48035;BME280;33812;46.480;6.834;2022-12-18T19:45:55;94569.88;;;21.67;33.86
48035;BME280;33812;46.480;6.834;2022-12-18T19:49:56;94572.09;;;21.76;34.35
48035;BME280;33812;46.480;6.834;2022-12-18T19:53:59;94563.78;;;21.76;34.38
48035;BME280;33812;46.480;6.834;2022-12-18T19:58:02;94555.06;;;21.77;34.81
48035;BME280;33812;46.480;6.834;2022-12-18T20:02:05;94559.38;;;21.82;34.73
48035;BME280;33812;46.480;6.834;2022-12-18T20:06:17;94577.16;;;21.81;35.64
48035;BME280;33812;46.480;6.834;2022-12-18T20:10:23;94573.53;;;21.84;35.25
48035;BME280;33812;46.480;6.834;2022-12-18T20:14:34;94575.59;;;21.80;35.87
48035;BME280;33812;46.480;6.834;2022-12-18T20:18:37;94590.94;;;21.84;35.92
48035;BME280;33812;46.480;6.834;2022-12-18T20:22:43;94578.69;;;21.85;36.16
48035;BME280;33812;46.480;6.834;2022-12-18T20:26:45;94556.13;;;21.87;36.47
48035;BME280;33812;46.480;6.834;2022-12-18T20:31:00;94560.06;;;21.86;36.69
48035;BME280;33812;46.480;6.834;2022-12-18T20:35:16;94565.66;;;21.82;36.65
48035;BME280;33812;46.480;6.834;2022-12-18T20:39:27;94564.41;;;21.87;36.91
48035;BME280;33812;46.480;6.834;2022-12-18T20:43:31;94552.13;;;21.88;36.98
48035;BME280;33812;46.480;6.834;2022-12-18T20:47:37;94537.06;;;21.89;36.97
48035;BME280;33812;46.480;6.834;2022-12-18T20:51:39;94537.06;;;21.89;37.11
48035;BME280;33812;46.480;6.834;2022-12-18T20:55:41;94545.03;;;21.87;36.93
48035;BME280;33812;46.480;6.834;2022-12-18T20:59:44;94553.69;;;21.89;36.36
48035;BME280;33812;46.480;6.834;2022-12-18T21:03:48;94541.06;;;21.88;37.36
48035;BME280;33812;46.480;6.834;2022-12-18T21:07:50;94546.59;;;21.88;36.83
48035;BME280;33812;46.480;6.834;2022-12-18T21:11:52;94543.03;;;21.88;36.16
48035;BME280;33812;46.480;6.834;2022-12-18T21:16:11;94533.53;;;21.89;36.58
48035;BME280;33812;46.480;6.834;2022-12-18T21:20:15;94539.94;;;21.85;36.06
48035;BME280;33812;46.480;6.834;2022-12-18T21:24:19;94532.47;;;21.82;35.93
48035;BME280;33812;46.480;6.834;2022-12-18T21:28:20;94540.34;;;21.84;36.19
48035;BME280;33812;46.480;6.834;2022-12-18T21:32:22;94538.78;;;21.83;36.23
48035;BME280;33812;46.480;6.834;2022-12-18T21:36:26;94533.31;;;21.79;36.07
48035;BME280;33812;46.480;6.834;2022-12-18T21:40:29;94534.47;;;21.82;36.42
48035;BME280;33812;46.480;6.834;2022-12-18T21:44:32;94530.13;;;21.81;36.22
48035;BME280;33812;46.480;6.834;2022-12-18T21:48:32;94551.88;;;21.79;35.99
48035;BME280;33812;46.480;6.834;2022-12-18T21:52:39;94544.38;;;21.79;35.52
48035;BME280;33812;46.480;6.834;2022-12-18T21:56:48;94544.41;;;21.76;35.61
48035;BME280;33812;46.480;6.834;2022-12-18T22:00:50;94542.06;;;21.74;35.78
48035;BME280;33812;46.480;6.834;2022-12-18T22:04:52;94542.88;;;21.74;35.81
48035;BME280;33812;46.480;6.834;2022-12-18T22:08:55;94527.03;;;21.75;35.97
48035;BME280;33812;46.480;6.834;2022-12-18T22:12:57;94519.16;;;21.73;36.01
48035;BME280;33812;46.480;6.834;2022-12-18T22:16:59;94525.41;;;21.78;36.22
48035;BME280;33812;46.480;6.834;2022-12-18T22:21:01;94534.56;;;21.74;35.75
48035;BME280;33812;46.480;6.834;2022-12-18T22:25:05;94521.59;;;21.71;35.87
48035;BME280;33812;46.480;6.834;2022-12-18T22:29:12;94527.13;;;21.71;35.78
48035;BME280;33812;46.480;6.834;2022-12-18T22:33:32;94545.28;;;21.72;35.82
48035;BME280;33812;46.480;6.834;2022-12-18T22:37:34;94533.41;;;21.72;35.60
48035;BME280;33812;46.480;6.834;2022-12-18T22:41:37;94544.91;;;21.70;35.68
48035;BME280;33812;46.480;6.834;2022-12-18T22:45:39;94548.53;;;21.67;35.79
48035;BME280;33812;46.480;6.834;2022-12-18T22:49:41;94554.78;;;21.71;35.58
48035;BME280;33812;46.480;6.834;2022-12-18T22:53:43;94552.50;;;21.66;35.55
48035;BME280;33812;46.480;6.834;2022-12-18T22:57:46;94550.06;;;21.68;35.60
48035;BME280;33812;46.480;6.834;2022-12-18T23:01:50;94552.50;;;21.66;35.41
48035;BME280;33812;46.480;6.834;2022-12-18T23:05:52;94568.31;;;21.66;35.22
48035;BME280;33812;46.480;6.834;2022-12-18T23:09:54;94544.59;;;21.65;35.63
48035;BME280;33812;46.480;6.834;2022-12-18T23:13:58;94552.50;;;21.66;35.53
48035;BME280;33812;46.480;6.834;2022-12-18T23:17:59;94556.47;;;21.65;35.61
48035;BME280;33812;46.480;6.834;2022-12-18T23:22:02;94543.00;;;21.67;35.41
48035;BME280;33812;46.480;6.834;2022-12-18T23:26:05;94552.13;;;21.64;35.25
48035;BME280;33812;46.480;6.834;2022-12-18T23:30:11;94553.38;;;21.59;35.47
48035;BME280;33812;46.480;6.834;2022-12-18T23:34:13;94557.31;;;21.62;35.76
48035;BME280;33812;46.480;6.834;2022-12-18T23:38:16;94560.94;;;21.59;35.07
48035;BME280;33812;46.480;6.834;2022-12-18T23:42:19;94549.50;;;21.57;35.21
48035;BME280;33812;46.480;6.834;2022-12-18T23:46:25;94559.34;;;21.58;34.85
48035;BME280;33812;46.480;6.834;2022-12-18T23:50:27;94548.72;;;21.56;35.27
48035;BME280;33812;46.480;6.834;2022-12-18T23:54:28;94539.63;;;21.56;35.10
48035;BME280;33812;46.480;6.834;2022-12-18T23:58:31;94547.91;;;21.56;35.30
